Warning: Javascript must be enabled to use all the features on this page!


Page Loading - Please Wait...

Click to hideNews Bulletins

Peak Streamflow for the Nation

USGS 01325000 SACANDAGA RIVER AT STEWARTS BRIDGE NR HADLEY NY

Saratoga County, New York
Hydrologic Unit Code 02020002
Latitude  43°18'41", Longitude  73°52'02" NAD83
Drainage area 1,055  square miles
Gage datum 581.28 feet above NAVD88
Output formats
Table
Graph
Tab-separated file
peakfq (watstore) format
Reselect output format
Water
Year
Date Gage
Height
(feet)
Stream-
flow
(cfs)
1908 1908-04-29 6.553 15,400
1909 1909-04-17 7.503 20,000
1910 1910-04-02 6.553 15,400
1911 1911-04-17 7.603,6 9,0601
1912 1912-04-09 9.053 14,800
1913 1913-03-28 12.363 35,5002
1914 1914-04-21 10.223 20,800
1915 1915-04-13 8.203 11,300
1916 1916-04-03 8.203 11,300
1917 1917-04-04 8.533 12,800
1918 1918-04-04 8.803 13,900
1919 1919-04-13 8.303 11,900
1920 1920-03-30 8.673 13,300
1921 1921-03-23 8.283 11,800
1922 1922-04-13 10.703 23,100
1923 1923-04-08 10.123 20,000
1924 1924-04-20 9.053 15,000
1925 1925-03-30 8.943 14,500
1926 1926-04-26 10.603 22,500
1927 1927-03-20 9.003 14,800
1928 1928-04-09 10.203 20,400
1929 1929-03-25 9.803 18,400
1930 1930-01-17 6.803 6,6406
1931 1931-06-30 6.223 5,0806
1932 1932-05-02 7.113 7,6006
1933 1932-12-02 6.883,6 6,7006
1934 1934-09-27 6.003 4,7906
1935 1935-07-12 7.153 7,6506
1936 1936-04-02 7.053 7,3506
1937 1937-05-16 7.203 7,8006
1938 1938-09-23 6.123 5,0406
1939 1939-03-19 6.483 5,8306
1940 1940-06-05 7.103 7,5006
1941 1941-01-06 6.083 4,9606
1942 1942-06-17 7.203 7,8006
1943 1943-05-13 7.203 7,8906
1944 1943-11-24 6.573 6,1406
1945 1945-05-18 7.193 7,8606
1946 1946-05-28 7.003 7,2906
1947 1947-06-03 7.233 7,9806
1948 1948-05-21 6.213 5,3006
1949 1949-01-04 6.163 5,1906
1950 1950-05-01 6.803 6,7406
1951 1951-04-27 7.163 7,7706
1952 1952-05-27 7.163 7,7706
1953 1953-04-30 7.766 8,5606
1954 1954-04-23 7.46 7,8906
1955 1955-01-05 6.31 5,6206
1956 1956-05-21 6.46 5,8906
1957 1957-01-15 6.24 5,5806
1958 1958-01-31 6.18 5,4806
1959 1959-05-08 6.28 5,5006
1960 1960-05-30 6.27 5,5306
1961 1961-06-30 6.26 5,5106
1962 1962-04-30 6.30 5,5806
1963 1962-11-12 6.03 5,2706
1964 1964-07-02 5.94 5,1106
1965 1965-09-18 5.89 5,0206
1966 1966-05-20 7.60 8,4306
1967 1967-01-21 6.25 5,6806
1968 1968-07-01 9.54 12,9006
1969 1969-05-20 7.63 8,5006
1970 1970-08-13 6.41 5,9806
1971 1971-05-12 7.96 9,0506
1972 1972-06-24 8.71 10,8006,9
1973 1973-05-21 7.58 8,3906
1974 1974-05-16 6.28 5,7306
1975 1975-05-06 6.52 6,1906
1976 1976-04-01 9.15 11,9006
1977 1977-04-26 9.15 11,9006
1978 1977-12-08 6.15 5,7706
1979 1979-04-30 8.61 10,6006
1980 1980-01-09 6.26 5,6006
1981 1981-05-16 7.50 8,1206
1982 1982-02-04 6.27 5,6206
1983 1983-05-04 9.68 13,3006
1984 1984-05-29 8.00 9,1406
1985 1985-02-14 8.58 10,5006
1986 1985-11-01 8.22 9,6306
1987 1986-10-01 8.84 11,1006
1988 1988-01-14 6.27 5,6206
1989 1989-05-10 8.75 10,9006
1990 1990-05-23 9.32 12,3006
1991 1991-02-05 5.78 4,7506
1992 1992-05-06 7.47 7,9906
1993 1993-04-28 9.37 12,5006
1994 1994-05-03 7.31 7,6506
1995 1995-09-14 6.18 5,4506
1996 1996-05-03 7.49 8,0306
1997 1997-05-05 7.69 8,4506
1998 1998-06-24 7.99 9,1106
1999 1998-11-08 6.23 5,5406
2000 2000-05-16 8.50 10,3006
2001 2001-05-15 6.29 5,6506
2002 2002-05-16 7.54 8,1306
2003 2003-05-05 6.24 5,5606
2004 2003-12-26 7.49 7,9506
2005 2005-01-27 6.30 5,6106
2006 2006-02-07 9.77 14,2006
2007 2007-05-03 9.78 14,2006
2008 2008-04-28 9.71 14,0006
2009 2009-05-03 6.20 5,4106
2010 2009-10-26 6.04 5,1306
2011 2011-05-02 10.40 16,5006
2012 2011-11-17 6.22 5,4406
2013 2013-06-15 8.84 11,0006
2014 2014-07-18 7.03 7,1506
2015 2015-09-05 5.80 4,9606
2016 2015-11-09 5.68 4,4706
2017 2017-05-07 8.67 10,6006
2018 2017-10-27 5.77 4,6206
2019 2019-04-25 10.00 14,9006
2020 2019-11-07 8.30 9,7006
?
  Peak Gage-Height Qualification Codes.
?
  Peak Streamflow Qualification Codes.